createdAt,value
2023-01-09T00:01:40.575Z,9.49
2023-01-09T00:04:08.336Z,9.47
2023-01-09T00:06:35.885Z,9.38
2023-01-09T00:09:04.083Z,9.34
2023-01-09T00:11:31.255Z,9.18
2023-01-09T00:14:00.719Z,9.14
2023-01-09T00:16:27.782Z,9.15
2023-01-09T00:18:57.601Z,9.23
2023-01-09T00:21:28.987Z,9.37
2023-01-09T00:23:55.840Z,9.36
2023-01-09T00:26:23.032Z,9.47
2023-01-09T00:28:52.108Z,9.58
2023-01-09T00:31:20.224Z,9.72
2023-01-09T00:34:07.329Z,9.54
2023-01-09T00:36:36.873Z,9.44
2023-01-09T00:39:05.154Z,9.52
2023-01-09T00:41:40.342Z,9.32
2023-01-09T00:44:18.221Z,9.13
2023-01-09T00:46:53.449Z,8.94
2023-01-09T00:49:21.155Z,9.05
2023-01-09T00:51:51.704Z,8.97
2023-01-09T00:54:20.098Z,8.75
2023-01-09T00:56:47.885Z,9.09
2023-01-09T00:59:14.851Z,9.05
2023-01-09T01:01:42.568Z,9.18
2023-01-09T01:04:30.543Z,9.07
2023-01-09T01:07:16.282Z,8.88
2023-01-09T01:09:43.182Z,8.96
2023-01-09T01:12:10.104Z,8.79
2023-01-09T01:14:38.729Z,8.58
2023-01-09T01:17:07.206Z,8.41
2023-01-09T01:19:37.674Z,8.39
2023-01-09T01:22:07.257Z,8.46
2023-01-09T01:24:36.686Z,8.57
2023-01-09T01:27:03.689Z,8.68
2023-01-09T01:29:30.860Z,8.35
2023-01-09T01:32:00.181Z,8.40
2023-01-09T01:34:29.370Z,8.64
2023-01-09T01:36:56.517Z,8.43
2023-01-09T01:39:23.347Z,8.52
2023-01-09T01:41:50.257Z,8.55
2023-01-09T01:45:06.975Z,8.65
2023-01-09T01:47:38.697Z,8.64
2023-01-09T01:50:26.281Z,8.53
2023-01-09T01:53:01.192Z,8.67
2023-01-09T01:55:30.741Z,8.46
2023-01-09T01:58:05.573Z,8.43
2023-01-09T02:00:38.373Z,8.53
2023-01-09T02:03:07.744Z,8.79
2023-01-09T02:05:40.875Z,8.73
2023-01-09T02:08:09.225Z,8.77
2023-01-09T02:10:40.658Z,9.04
2023-01-09T02:13:15.750Z,9.12
2023-01-09T02:15:45.584Z,8.87
2023-01-09T02:18:46.977Z,8.70
2023-01-09T02:21:33.102Z,8.95
2023-01-09T02:24:13.257Z,8.76
2023-01-09T02:27:24.897Z,8.70
2023-01-09T02:30:18.828Z,8.73
2023-01-09T02:33:18.231Z,8.55
2023-01-09T02:36:06.618Z,8.81
2023-01-09T02:38:59.308Z,8.55
2023-01-09T02:42:03.956Z,8.41
2023-01-09T02:44:34.466Z,8.55
2023-01-09T02:47:08.799Z,8.56
2023-01-09T02:49:39.046Z,8.56
2023-01-09T02:52:52.707Z,8.67
2023-01-09T02:56:01.397Z,8.64
2023-01-09T02:59:13.508Z,8.77
2023-01-09T03:02:23.982Z,8.89
2023-01-09T03:05:14.008Z,8.86
2023-01-09T03:08:04.368Z,8.91
2023-01-09T03:10:57.139Z,9.02
2023-01-09T03:13:26.915Z,8.83
2023-01-09T03:15:58.094Z,8.83
2023-01-09T03:18:27.346Z,8.98
2023-01-09T03:20:55.266Z,8.96
2023-01-09T03:23:22.392Z,9.02
2023-01-09T03:25:51.617Z,8.87
2023-01-09T03:28:31.896Z,8.97
2023-01-09T03:31:01.043Z,8.90
2023-01-09T03:33:30.126Z,8.78
2023-01-09T03:35:59.369Z,8.88
2023-01-09T03:38:29.365Z,9.03
2023-01-09T03:40:56.225Z,9.07
2023-01-09T03:43:25.826Z,9.10
2023-01-09T03:45:52.804Z,9.20
2023-01-09T03:48:19.735Z,9.17
2023-01-09T03:50:52.563Z,9.05
2023-01-09T03:53:22.370Z,9.16
2023-01-09T03:55:52.723Z,9.28
2023-01-09T03:58:20.674Z,9.35
2023-01-09T04:00:53.964Z,9.45
2023-01-09T04:03:23.392Z,9.32
2023-01-09T04:05:51.508Z,9.28
2023-01-09T04:08:18.892Z,9.26
2023-01-09T04:10:54.811Z,9.49
2023-01-09T04:13:24.356Z,9.44
2023-01-09T04:15:51.230Z,9.38
2023-01-09T04:18:20.811Z,9.58
2023-01-09T04:20:48.517Z,9.68
2023-01-09T04:23:20.562Z,9.71
2023-01-09T04:25:47.667Z,9.38
2023-01-09T04:28:14.692Z,9.42
2023-01-09T04:30:41.524Z,9.53
2023-01-09T04:33:10.733Z,9.25
2023-01-09T04:35:37.721Z,9.45
2023-01-09T04:38:04.717Z,9.57
2023-01-09T04:40:33.693Z,9.34
2023-01-09T04:43:05.263Z,9.31
2023-01-09T04:45:32.157Z,9.26
2023-01-09T04:47:59.050Z,9.42
2023-01-09T04:50:26.190Z,9.11
2023-01-09T04:52:53.197Z,9.26
2023-01-09T04:55:20.145Z,9.25
2023-01-09T04:57:47.047Z,9.24
2023-01-09T05:00:14.611Z,9.22
2023-01-09T05:02:41.920Z,9.56
2023-01-09T05:05:12.162Z,9.71
2023-01-09T05:07:41.438Z,9.70
2023-01-09T05:10:13.048Z,9.77
2023-01-09T05:12:40.148Z,9.60
2023-01-09T05:15:11.238Z,9.62
2023-01-09T05:17:38.230Z,9.66
2023-01-09T05:20:05.607Z,9.45
2023-01-09T05:22:32.775Z,9.23
2023-01-09T05:25:02.267Z,9.25
2023-01-09T05:27:30.485Z,9.41
2023-01-09T05:29:57.347Z,9.35
2023-01-09T05:32:24.288Z,9.41
2023-01-09T05:34:51.298Z,9.29
2023-01-09T05:37:18.206Z,9.41
2023-01-09T05:39:45.420Z,9.14
2023-01-09T05:42:16.807Z,9.30
2023-01-09T05:44:46.351Z,9.27
2023-01-09T05:47:15.817Z,9.27
2023-01-09T05:49:42.841Z,9.23
2023-01-09T05:52:09.815Z,9.42
2023-01-09T05:54:36.687Z,9.34
2023-01-09T05:57:03.638Z,9.56
2023-01-09T05:59:30.596Z,9.79
2023-01-09T06:01:57.738Z,9.49
2023-01-09T06:04:25.647Z,9.35
2023-01-09T06:06:57.322Z,9.19
2023-01-09T06:09:27.323Z,9.32
2023-01-09T06:11:54.902Z,9.59
2023-01-09T06:14:21.894Z,9.70
2023-01-09T06:16:49.084Z,9.65
2023-01-09T06:19:16.240Z,9.45
2023-01-09T06:21:43.200Z,9.44
2023-01-09T06:24:10.132Z,9.70
2023-01-09T06:26:36.974Z,9.70
2023-01-09T06:29:08.936Z,9.71
2023-01-09T06:31:35.817Z,9.64
2023-01-09T06:34:05.173Z,9.68
2023-01-09T06:36:31.999Z,9.47
2023-01-09T06:38:58.859Z,9.47
2023-01-09T06:41:25.780Z,9.78
2023-01-09T06:43:52.720Z,9.79
2023-01-09T06:46:19.649Z,9.67
2023-01-09T06:48:46.647Z,9.80
2023-01-09T06:51:13.721Z,9.91
2023-01-09T06:53:40.665Z,10.02
2023-01-09T06:56:10.594Z,10.21
2023-01-09T06:58:37.615Z,10.16
2023-01-09T07:01:04.838Z,10.10
2023-01-09T07:03:34.787Z,10.34
2023-01-09T07:06:01.665Z,10.03
2023-01-09T07:08:31.124Z,10.07
2023-01-09T07:10:58.127Z,10.02
2023-01-09T07:13:29.535Z,9.87
2023-01-09T07:15:56.422Z,9.76
2023-01-09T07:18:23.423Z,9.84
2023-01-09T07:20:50.704Z,9.86
2023-01-09T07:23:18.826Z,9.90
2023-01-09T07:25:49.317Z,9.90
2023-01-09T07:28:16.241Z,10.01
2023-01-09T07:30:43.360Z,10.21
2023-01-09T07:33:12.708Z,10.02
2023-01-09T07:35:42.159Z,10.02
2023-01-09T07:38:11.367Z,9.90
2023-01-09T07:40:40.859Z,9.83
2023-01-09T07:43:12.297Z,9.70
2023-01-09T07:45:44.314Z,9.77
2023-01-09T07:48:11.247Z,9.71
2023-01-09T07:50:38.196Z,9.83
2023-01-09T07:53:05.382Z,9.87
2023-01-09T07:55:32.302Z,9.60
2023-01-09T07:58:01.793Z,9.61
2023-01-09T08:00:29.203Z,9.74
2023-01-09T08:02:56.309Z,9.94
2023-01-09T08:05:25.376Z,9.97
2023-01-09T08:07:52.495Z,9.83
2023-01-09T08:10:20.161Z,9.77
2023-01-09T08:12:51.257Z,9.73
2023-01-09T08:15:20.668Z,9.78
2023-01-09T08:17:52.203Z,9.68
2023-01-09T08:20:19.363Z,9.75
2023-01-09T08:22:50.632Z,9.51
2023-01-09T08:25:18.445Z,9.77
2023-01-09T08:27:45.821Z,9.95
2023-01-09T08:30:16.499Z,9.59
2023-01-09T08:32:48.118Z,9.79
2023-01-09T08:35:15.060Z,9.95
2023-01-09T08:37:45.596Z,9.80
2023-01-09T08:40:16.252Z,9.85
2023-01-09T08:43:04.422Z,9.91
2023-01-09T08:45:53.235Z,10.01
2023-01-09T08:48:20.289Z,10.40
2023-01-09T08:50:47.147Z,10.86
2023-01-09T08:53:15.371Z,10.96
2023-01-09T08:55:45.323Z,10.89
2023-01-09T08:58:12.547Z,10.66
2023-01-09T09:00:39.519Z,10.53
2023-01-09T09:03:08.884Z,10.58
2023-01-09T09:05:35.785Z,10.94
2023-01-09T09:08:03.623Z,10.94
2023-01-09T09:10:31.001Z,11.01
2023-01-09T09:13:01.810Z,10.73
2023-01-09T09:15:30.246Z,10.66
2023-01-09T09:18:05.817Z,11.55
2023-01-09T09:20:36.799Z,12.60
2023-01-09T09:23:05.445Z,12.25
2023-01-09T09:25:32.434Z,12.14
2023-01-09T09:28:01.805Z,11.87
2023-01-09T09:30:28.841Z,11.67
2023-01-09T09:32:56.142Z,11.35
2023-01-09T09:35:26.027Z,11.30
2023-01-09T09:37:59.782Z,10.78
2023-01-09T09:41:29.049Z,9.87
2023-01-09T09:44:33.476Z,9.65
2023-01-09T09:47:41.603Z,9.89
2023-01-09T09:50:21.395Z,9.54
2023-01-09T09:53:30.872Z,9.75
2023-01-09T09:55:58.225Z,9.94
2023-01-09T09:58:41.244Z,9.68
2023-01-09T10:01:10.382Z,9.68
2023-01-09T10:03:50.521Z,9.65
2023-01-09T10:06:30.575Z,10.39
2023-01-09T10:09:24.869Z,11.58
2023-01-09T10:12:10.812Z,12.26
2023-01-09T10:14:38.879Z,12.24
2023-01-09T10:17:25.847Z,11.27
2023-01-09T10:20:17.437Z,11.31
2023-01-09T10:22:44.281Z,11.19
2023-01-09T10:25:35.903Z,11.12
2023-01-09T10:28:07.316Z,11.68
2023-01-09T10:30:48.325Z,12.32
2023-01-09T10:33:21.088Z,13.04
2023-01-09T10:35:58.607Z,14.47
2023-01-09T10:38:41.501Z,15.65
2023-01-09T10:41:30.892Z,15.73
2023-01-09T10:44:42.590Z,14.53
2023-01-09T10:47:21.116Z,13.78
2023-01-09T10:49:52.648Z,13.62
2023-01-09T10:52:34.766Z,12.82
2023-01-09T10:55:19.352Z,13.72
2023-01-09T10:57:53.427Z,16.18
2023-01-09T11:00:23.970Z,19.04
2023-01-09T11:02:54.940Z,21.60
2023-01-09T11:05:32.570Z,23.89
2023-01-09T11:08:34.577Z,24.24
2023-01-09T11:11:03.436Z,24.77
2023-01-09T11:13:38.306Z,25.97
2023-01-09T11:16:16.307Z,24.85
2023-01-09T11:18:49.238Z,24.90
2023-01-09T11:21:36.181Z,22.57
2023-01-09T11:24:24.045Z,18.86
2023-01-09T11:26:54.795Z,17.08
2023-01-09T11:29:24.689Z,16.74
2023-01-09T11:32:02.172Z,15.95
2023-01-09T11:34:36.013Z,16.61
2023-01-09T11:37:11.939Z,17.78
2023-01-09T11:39:48.033Z,20.56
2023-01-09T11:42:46.586Z,19.98
2023-01-09T11:45:34.333Z,18.71
2023-01-09T11:48:04.427Z,17.39
2023-01-09T11:50:34.136Z,15.86
2023-01-09T11:53:51.040Z,18.35
2023-01-09T11:56:20.943Z,18.39
2023-01-09T11:58:47.920Z,16.70
2023-01-09T12:02:05.661Z,18.08
2023-01-09T12:04:44.297Z,20.28
2023-01-09T12:07:54.240Z,17.92
2023-01-09T12:10:33.165Z,15.40
2023-01-09T12:13:23.783Z,15.18
2023-01-09T12:16:50.971Z,13.93
2023-01-09T12:19:42.466Z,13.43
2023-01-09T12:22:44.358Z,13.01
2023-01-09T12:25:35.516Z,13.06
2023-01-09T12:28:36.468Z,12.85
2023-01-09T12:31:31.489Z,12.53
2023-01-09T12:34:01.641Z,12.53
2023-01-09T12:37:04.890Z,12.12
2023-01-09T12:40:17.088Z,12.44
2023-01-09T12:43:13.326Z,11.70
2023-01-09T12:46:13.604Z,12.12
2023-01-09T12:49:11.171Z,11.74
2023-01-09T12:51:48.729Z,11.96
2023-01-09T12:54:38.840Z,11.50
2023-01-09T12:57:27.092Z,11.40
2023-01-09T13:00:02.986Z,12.07
2023-01-09T13:02:46.351Z,13.53
2023-01-09T13:05:31.978Z,15.50
2023-01-09T13:08:38.066Z,14.42
2023-01-09T13:11:51.931Z,12.93
2023-01-09T13:14:32.690Z,12.72
2023-01-09T13:17:02.691Z,12.58
2023-01-09T13:19:37.455Z,12.57
2023-01-09T13:22:06.242Z,12.44
2023-01-09T13:24:50.615Z,11.72
2023-01-09T13:27:23.473Z,11.98
2023-01-09T13:30:17.835Z,11.84
2023-01-09T13:33:07.209Z,11.50
2023-01-09T13:35:34.541Z,11.31
2023-01-09T13:38:01.897Z,11.29
2023-01-09T13:40:30.326Z,10.88
2023-01-09T13:42:59.992Z,10.81
2023-01-09T13:45:33.431Z,10.82
2023-01-09T13:48:10.820Z,10.79
2023-01-09T13:50:39.015Z,10.73
2023-01-09T13:53:18.172Z,10.99
2023-01-09T13:56:05.387Z,11.08
2023-01-09T13:58:38.184Z,11.25
2023-01-09T14:01:25.108Z,11.23
2023-01-09T14:04:14.647Z,11.02
2023-01-09T14:06:44.891Z,11.00
2023-01-09T14:09:22.856Z,11.05
2023-01-09T14:12:08.489Z,11.00
2023-01-09T14:14:35.693Z,10.83
2023-01-09T14:17:15.420Z,10.87
2023-01-09T14:19:45.387Z,10.86
2023-01-09T14:22:27.149Z,11.14
2023-01-09T14:24:56.613Z,10.94
2023-01-09T14:27:54.691Z,10.88
2023-01-09T14:30:27.594Z,10.90
2023-01-09T14:33:18.993Z,10.86
2023-01-09T14:35:50.449Z,10.79
2023-01-09T14:38:32.755Z,10.71
2023-01-09T14:41:58.276Z,10.80
2023-01-09T14:44:45.542Z,10.86
2023-01-09T14:47:33.739Z,10.86
2023-01-09T14:50:16.132Z,11.04
2023-01-09T14:52:53.369Z,11.19
2023-01-09T14:55:46.261Z,11.10
2023-01-09T14:58:32.963Z,11.04
2023-01-09T15:01:22.809Z,10.93
2023-01-09T15:03:58.951Z,11.07
2023-01-09T15:06:29.837Z,10.93
2023-01-09T15:09:29.104Z,11.03
2023-01-09T15:12:03.831Z,11.11
2023-01-09T15:14:45.581Z,10.98
2023-01-09T15:17:30.681Z,11.14
2023-01-09T15:20:00.795Z,10.89
2023-01-09T15:22:35.776Z,10.71
2023-01-09T15:25:39.892Z,10.80
2023-01-09T15:28:32.514Z,10.96
2023-01-09T15:31:12.048Z,11.03
2023-01-09T15:33:40.748Z,11.31
2023-01-09T15:36:16.383Z,11.41
2023-01-09T15:38:44.302Z,11.26
2023-01-09T15:41:37.130Z,11.09
2023-01-09T15:44:07.337Z,10.61
2023-01-09T15:46:34.474Z,10.14
2023-01-09T15:49:04.591Z,10.57
2023-01-09T15:51:33.048Z,10.69
2023-01-09T15:54:03.756Z,10.74
2023-01-09T15:56:30.785Z,10.79
2023-01-09T15:59:01.684Z,10.64
2023-01-09T16:01:38.610Z,10.27
2023-01-09T16:04:17.264Z,10.38
2023-01-09T16:06:49.153Z,10.39
2023-01-09T16:09:31.110Z,10.42
2023-01-09T16:12:02.744Z,10.32
2023-01-09T16:14:38.824Z,10.56
2023-01-09T16:17:17.826Z,10.72
2023-01-09T16:19:52.013Z,10.52
2023-01-09T16:22:53.468Z,10.48
2023-01-09T16:25:38.940Z,10.34
2023-01-09T16:28:26.832Z,10.08
2023-01-09T16:31:27.054Z,9.93
2023-01-09T16:34:06.383Z,9.89
2023-01-09T16:36:37.419Z,9.88
2023-01-09T16:39:04.731Z,9.79
2023-01-09T16:41:52.576Z,10.03
2023-01-09T16:44:21.767Z,9.80
2023-01-09T16:46:50.772Z,9.87
2023-01-09T16:49:27.395Z,10.12
2023-01-09T16:51:54.735Z,10.02
2023-01-09T16:54:24.830Z,10.04
2023-01-09T16:56:57.520Z,9.81
2023-01-09T16:59:30.227Z,10.08
2023-01-09T17:02:00.359Z,10.09
2023-01-09T17:04:28.210Z,9.81
2023-01-09T17:06:55.105Z,9.81
2023-01-09T17:09:27.380Z,9.70
2023-01-09T17:11:57.071Z,9.96
2023-01-09T17:14:28.674Z,9.94
2023-01-09T17:16:55.634Z,9.80
2023-01-09T17:19:23.573Z,9.88
2023-01-09T17:21:50.472Z,9.98
2023-01-09T17:24:40.556Z,9.82
2023-01-09T17:27:28.851Z,9.71
2023-01-09T17:29:55.727Z,9.66
2023-01-09T17:32:24.774Z,9.33
2023-01-09T17:34:53.765Z,9.39
2023-01-09T17:37:23.198Z,9.68
2023-01-09T17:39:50.113Z,9.78
2023-01-09T17:42:17.001Z,9.88
2023-01-09T17:44:46.987Z,9.98
2023-01-09T17:47:15.478Z,10.08
2023-01-09T17:49:47.283Z,10.23
2023-01-09T17:52:14.331Z,10.03
2023-01-09T17:54:41.204Z,10.21
2023-01-09T17:57:12.121Z,10.36
2023-01-09T17:59:39.005Z,10.52
2023-01-09T18:02:08.528Z,10.33
2023-01-09T18:04:39.099Z,10.28
2023-01-09T18:07:12.659Z,10.55
2023-01-09T18:09:39.508Z,10.65
2023-01-09T18:12:09.474Z,10.26
2023-01-09T18:14:38.078Z,10.37
2023-01-09T18:17:09.179Z,10.53
2023-01-09T18:19:36.307Z,10.48
2023-01-09T18:22:03.908Z,10.51
2023-01-09T18:24:30.868Z,10.53
2023-01-09T18:27:00.276Z,10.47
2023-01-09T18:29:27.152Z,10.50
2023-01-09T18:31:54.121Z,10.32
2023-01-09T18:34:23.630Z,10.45
2023-01-09T18:36:53.160Z,10.41
2023-01-09T18:39:20.319Z,10.56
2023-01-09T18:41:47.191Z,10.38
2023-01-09T18:44:14.112Z,10.44
2023-01-09T18:46:42.127Z,10.38
2023-01-09T18:49:09.658Z,10.43
2023-01-09T18:51:36.991Z,10.44
2023-01-09T18:54:04.751Z,10.50
2023-01-09T18:56:31.685Z,10.58
2023-01-09T18:58:58.971Z,10.51
2023-01-09T19:01:28.713Z,10.56
2023-01-09T19:03:56.848Z,10.45
2023-01-09T19:06:24.114Z,10.37
2023-01-09T19:08:51.265Z,10.23
2023-01-09T19:11:18.609Z,10.21
2023-01-09T19:13:47.563Z,10.04
2023-01-09T19:16:14.602Z,10.28
2023-01-09T19:18:42.823Z,10.22
2023-01-09T19:21:17.100Z,10.17
2023-01-09T19:23:45.430Z,10.25
2023-01-09T19:26:20.655Z,10.23
2023-01-09T19:28:50.341Z,10.48
2023-01-09T19:31:24.433Z,10.52
2023-01-09T19:33:55.081Z,10.41
2023-01-09T19:36:26.121Z,10.34
2023-01-09T19:39:01.329Z,10.43
2023-01-09T19:41:29.657Z,10.25
2023-01-09T19:43:57.203Z,10.34
2023-01-09T19:46:25.686Z,10.46
2023-01-09T19:48:58.362Z,10.17
2023-01-09T19:51:25.864Z,10.15
2023-01-09T19:56:31.885Z,10.22
2023-01-09T19:59:02.144Z,10.18
2023-01-09T20:01:32.997Z,10.31
2023-01-09T20:04:04.052Z,10.27
2023-01-09T20:06:31.854Z,10.33
2023-01-09T20:09:03.481Z,10.43
2023-01-09T20:11:33.352Z,10.28
2023-01-09T20:14:01.524Z,10.26
2023-01-09T20:16:32.857Z,10.18
2023-01-09T20:19:08.750Z,10.16
2023-01-09T20:21:36.369Z,10.03
2023-01-09T20:24:06.504Z,10.18
2023-01-09T20:26:36.143Z,10.37
2023-01-09T20:29:04.084Z,10.23
2023-01-09T20:31:32.532Z,10.45
2023-01-09T20:34:00.138Z,10.35
2023-01-09T20:36:30.142Z,10.25
2023-01-09T20:39:00.210Z,10.02
2023-01-09T20:41:29.446Z,10.03
2023-01-09T20:44:03.471Z,10.20
2023-01-09T20:46:42.545Z,10.13
2023-01-09T20:49:12.890Z,10.26
2023-01-09T20:51:46.758Z,10.04
2023-01-09T20:54:17.687Z,10.17
2023-01-09T20:56:47.174Z,10.21
2023-01-09T20:59:20.182Z,10.20
2023-01-09T21:01:47.211Z,10.18
2023-01-09T21:04:14.576Z,10.16
2023-01-09T21:06:42.626Z,10.13
2023-01-09T21:09:10.115Z,10.10
2023-01-09T21:11:40.127Z,10.18
2023-01-09T21:14:10.373Z,10.25
2023-01-09T21:16:37.335Z,10.21
2023-01-09T21:19:04.327Z,10.04
2023-01-09T21:21:31.589Z,10.13
2023-01-09T21:24:00.616Z,10.06
2023-01-09T21:26:31.506Z,10.14
2023-01-09T21:29:01.523Z,10.31
2023-01-09T21:31:34.753Z,10.06
2023-01-09T21:34:08.153Z,10.13
2023-01-09T21:36:36.036Z,10.18
2023-01-09T21:39:08.033Z,10.33
2023-01-09T21:41:53.853Z,10.34
2023-01-09T21:44:39.613Z,10.09
2023-01-09T21:47:06.695Z,10.20
2023-01-09T21:49:35.198Z,10.26
2023-01-09T21:52:08.019Z,10.32
2023-01-09T21:54:35.099Z,10.42
2023-01-09T21:57:04.469Z,10.28
2023-01-09T21:59:34.852Z,10.19
2023-01-09T22:02:04.618Z,9.95
2023-01-09T22:04:32.382Z,9.94
2023-01-09T22:06:59.431Z,9.87
2023-01-09T22:09:28.847Z,9.88
2023-01-09T22:11:58.389Z,9.79
2023-01-09T22:14:27.887Z,9.61
2023-01-09T22:16:59.491Z,9.87
2023-01-09T22:19:28.123Z,10.16
2023-01-09T22:21:55.234Z,10.16
2023-01-09T22:24:22.369Z,10.25
2023-01-09T22:26:51.670Z,10.29
2023-01-09T22:29:21.864Z,9.68
2023-01-09T22:31:48.999Z,9.87
2023-01-09T22:34:21.597Z,10.04
2023-01-09T22:36:53.147Z,9.96
2023-01-09T22:39:22.548Z,9.97
2023-01-09T22:41:55.089Z,10.15
2023-01-09T22:44:24.520Z,10.26
2023-01-09T22:46:53.503Z,10.32
2023-01-09T22:49:20.369Z,10.32
2023-01-09T22:51:47.240Z,10.45
2023-01-09T22:54:16.792Z,10.06
2023-01-09T22:56:46.812Z,10.20
2023-01-09T22:59:15.767Z,10.10
2023-01-09T23:01:47.113Z,10.33
2023-01-09T23:04:16.732Z,10.34
2023-01-09T23:06:46.144Z,10.64
2023-01-09T23:09:13.052Z,10.52
2023-01-09T23:12:00.788Z,10.49
2023-01-09T23:14:28.932Z,10.47
2023-01-09T23:16:56.528Z,10.40
2023-01-09T23:19:23.466Z,10.31
2023-01-09T23:21:52.894Z,10.14
2023-01-09T23:24:19.979Z,10.10
2023-01-09T23:26:49.903Z,10.30
2023-01-09T23:29:16.817Z,10.25
2023-01-09T23:31:44.052Z,10.33
2023-01-09T23:34:16.996Z,10.33
2023-01-09T23:36:44.556Z,10.37
2023-01-09T23:39:11.760Z,10.44
2023-01-09T23:41:57.540Z,10.32
2023-01-09T23:44:24.659Z,10.14
2023-01-09T23:46:51.896Z,10.31
2023-01-09T23:49:19.417Z,10.22
2023-01-09T23:51:48.595Z,10.23
2023-01-09T23:54:16.593Z,10.33
2023-01-09T23:56:43.483Z,10.35
2023-01-09T23:59:13.874Z,10.50
